createdAt,value
2023-03-13T00:02:40.776Z,4.07
2023-03-13T00:05:43.390Z,7.47
2023-03-13T00:08:46.305Z,5.10
2023-03-13T00:11:50.343Z,5.20
2023-03-13T00:14:52.944Z,4.83
2023-03-13T00:17:55.516Z,3.20
2023-03-13T00:21:01.441Z,3.07
2023-03-13T00:24:05.019Z,5.80
2023-03-13T00:27:08.968Z,4.10
2023-03-13T00:30:12.847Z,8.17
2023-03-13T00:33:15.474Z,5.23
2023-03-13T00:36:19.396Z,2.53
2023-03-13T00:39:22.578Z,2.27
2023-03-13T00:42:26.567Z,7.50
2023-03-13T00:45:29.389Z,5.67
2023-03-13T00:48:33.099Z,4.37
2023-03-13T00:51:36.004Z,6.90
2023-03-13T00:54:39.395Z,4.73
2023-03-13T00:57:43.507Z,5.83
2023-03-13T01:00:46.502Z,2.23
2023-03-13T01:03:52.241Z,4.27
2023-03-13T01:06:54.995Z,8.37
2023-03-13T01:09:57.763Z,8.50
2023-03-13T01:13:02.082Z,6.37
2023-03-13T01:16:06.548Z,7.40
2023-03-13T01:19:13.112Z,3.67
2023-03-13T01:22:16.138Z,5.83
2023-03-13T01:25:19.036Z,3.43
2023-03-13T01:28:23.400Z,4.07
2023-03-13T01:31:28.065Z,5.30
2023-03-13T01:34:30.828Z,6.67
2023-03-13T01:37:34.572Z,5.17
2023-03-13T01:40:41.928Z,3.63
2023-03-13T01:43:46.854Z,7.37
2023-03-13T01:46:49.762Z,4.90
2023-03-13T01:49:53.750Z,1.70
2023-03-13T01:52:56.551Z,3.23
2023-03-13T01:56:02.086Z,5.60
2023-03-13T01:59:09.343Z,8.17
2023-03-13T02:02:12.680Z,4.93
2023-03-13T02:05:17.156Z,5.57
2023-03-13T02:08:26.565Z,5.57
2023-03-13T02:11:40.891Z,4.03
2023-03-13T02:14:47.133Z,3.87
2023-03-13T02:17:51.368Z,4.73
2023-03-13T02:21:02.410Z,2.13
2023-03-13T02:24:14.913Z,2.77
2023-03-13T02:27:19.064Z,2.77
2023-03-13T02:30:22.140Z,3.17
2023-03-13T02:33:28.757Z,5.03
2023-03-13T02:36:32.059Z,3.07
2023-03-13T02:39:35.711Z,3.23
2023-03-13T02:42:42.335Z,2.10
2023-03-13T02:46:02.143Z,5.40
2023-03-13T02:49:20.587Z,4.47
2023-03-13T02:52:27.293Z,1.97
2023-03-13T02:55:34.149Z,4.37
2023-03-13T02:58:49.237Z,4.13
2023-03-13T03:01:53.617Z,3.97
2023-03-13T03:04:56.375Z,2.37
2023-03-13T03:07:59.178Z,2.83
2023-03-13T03:11:02.183Z,3.20
2023-03-13T03:14:06.586Z,2.57
2023-03-13T03:17:09.484Z,2.37
2023-03-13T03:20:12.935Z,2.67
2023-03-13T03:23:15.851Z,3.33
2023-03-13T03:26:19.225Z,2.87
2023-03-13T03:29:23.265Z,3.03
2023-03-13T03:32:25.991Z,2.30
2023-03-13T03:35:29.146Z,4.30
2023-03-13T03:38:32.965Z,1.27
2023-03-13T03:41:35.844Z,2.80
2023-03-13T03:44:39.942Z,4.93
2023-03-13T03:47:42.919Z,2.33
2023-03-13T03:50:45.874Z,2.27
2023-03-13T03:53:48.699Z,2.47
2023-03-13T03:56:51.505Z,5.70
2023-03-13T03:59:55.653Z,3.03
2023-03-13T04:02:58.601Z,3.87
2023-03-13T04:06:01.514Z,5.13
2023-03-13T04:09:04.844Z,4.77
2023-03-13T04:12:08.368Z,2.93
2023-03-13T04:15:13.332Z,3.63
2023-03-13T04:18:16.589Z,0.63
2023-03-13T04:21:19.308Z,2.03
2023-03-13T04:24:22.210Z,2.43
2023-03-13T04:27:25.140Z,0.50
2023-03-13T04:30:29.391Z,0.70
2023-03-13T04:33:32.287Z,0.50
2023-03-13T04:36:34.976Z,0.90
2023-03-13T04:39:37.822Z,0.37
2023-03-13T04:42:41.023Z,0.77
2023-03-13T04:45:45.309Z,1.20
2023-03-13T04:48:48.159Z,0.33
2023-03-13T04:51:50.953Z,0.60
2023-03-13T04:54:53.759Z,0.33
2023-03-13T04:57:56.629Z,1.40
2023-03-13T05:01:00.925Z,2.27
2023-03-13T05:04:03.628Z,0.90
2023-03-13T05:07:06.481Z,0.53
2023-03-13T05:10:10.062Z,1.37
2023-03-13T05:13:12.906Z,0.43
2023-03-13T05:16:17.200Z,1.00
2023-03-13T05:19:20.015Z,2.00
2023-03-13T05:22:22.758Z,2.00
2023-03-13T05:25:25.507Z,0.87
2023-03-13T05:28:28.343Z,1.53
2023-03-13T05:31:32.696Z,0.50
2023-03-13T05:34:35.385Z,0.50
2023-03-13T05:37:40.850Z,0.40
2023-03-13T05:40:44.012Z,0.57
2023-03-13T05:43:46.728Z,0.25
2023-03-13T05:46:50.857Z,0.80
2023-03-13T05:49:53.805Z,1.93
2023-03-13T05:52:56.538Z,0.20
2023-03-13T05:55:59.253Z,0.40
2023-03-13T05:59:01.958Z,1.77
2023-03-13T06:02:06.292Z,0.38
2023-03-13T06:05:09.551Z,0.80
2023-03-13T06:08:12.273Z,0.10
2023-03-13T06:11:15.170Z,0.53
2023-03-13T06:14:17.908Z,0.60
2023-03-13T06:17:22.234Z,0.30
2023-03-13T06:20:25.028Z,0.75
2023-03-13T06:23:28.195Z,1.07
2023-03-13T06:26:31.025Z,0.30
2023-03-13T06:29:33.795Z,0.47
2023-03-13T06:32:38.089Z,0.30
2023-03-13T06:35:55.209Z,0.30
2023-03-13T06:38:58.918Z,0.57
2023-03-13T06:42:01.631Z,1.38
2023-03-13T06:45:04.812Z,0.22
2023-03-13T06:48:09.233Z,0.52
2023-03-13T06:51:13.150Z,0.25
2023-03-13T06:54:15.924Z,0.13
2023-03-13T06:57:18.604Z,0.50
2023-03-13T07:00:22.418Z,0.40
2023-03-13T07:03:26.811Z,2.00
2023-03-13T07:06:29.750Z,0.73
2023-03-13T07:09:32.604Z,0.20
2023-03-13T07:12:35.626Z,0.45
2023-03-13T07:15:40.401Z,0.28
2023-03-13T07:18:45.117Z,0.32
2023-03-13T07:21:49.793Z,0.32
2023-03-13T07:24:52.702Z,0.90
2023-03-13T07:27:55.497Z,0.20
2023-03-13T07:31:05.334Z,0.35
2023-03-13T07:34:09.600Z,0.50
2023-03-13T07:37:12.729Z,0.75
2023-03-13T07:40:15.555Z,0.10
2023-03-13T07:43:18.767Z,0.65
2023-03-13T07:46:21.774Z,1.65
2023-03-13T07:49:26.835Z,0.43
2023-03-13T07:52:29.788Z,0.20
2023-03-13T07:55:32.567Z,0.28
2023-03-13T07:58:36.943Z,0.63
2023-03-13T08:01:39.727Z,0.95
2023-03-13T08:04:44.149Z,0.28
2023-03-13T08:07:46.938Z,0.50
2023-03-13T08:10:49.871Z,1.30
2023-03-13T08:13:53.271Z,0.50
2023-03-13T08:16:56.043Z,0.30
2023-03-13T08:20:00.169Z,0.20
2023-03-13T08:23:02.890Z,0.20
2023-03-13T08:26:07.976Z,0.52
2023-03-13T08:29:12.506Z,0.20
2023-03-13T08:32:15.353Z,1.33
2023-03-13T08:35:19.478Z,0.55
2023-03-13T08:38:22.187Z,0.40
2023-03-13T08:41:26.992Z,0.22
2023-03-13T08:44:29.793Z,0.73
2023-03-13T08:47:33.417Z,0.30
2023-03-13T08:50:37.608Z,0.30
2023-03-13T08:53:41.956Z,0.63
2023-03-13T08:56:44.721Z,0.40
2023-03-13T08:59:47.524Z,0.85
2023-03-13T09:02:50.249Z,1.77
2023-03-13T09:05:56.254Z,0.45
2023-03-13T09:08:59.518Z,0.65
2023-03-13T09:12:02.347Z,0.70
2023-03-13T09:15:05.740Z,1.80
2023-03-13T09:18:08.660Z,0.75
2023-03-13T09:21:15.507Z,0.70
2023-03-13T09:24:18.663Z,1.40
2023-03-13T09:27:21.673Z,1.58
2023-03-13T09:30:24.696Z,2.35
2023-03-13T09:33:27.630Z,0.77
2023-03-13T09:36:31.941Z,0.95
2023-03-13T09:39:34.635Z,0.52
2023-03-13T09:42:46.670Z,0.73
2023-03-13T09:45:53.370Z,2.72
2023-03-13T09:49:00.775Z,1.20
2023-03-13T09:52:16.581Z,0.55
2023-03-13T09:55:22.098Z,0.70
2023-03-13T09:58:29.631Z,1.80
2023-03-13T10:01:34.524Z,1.10
2023-03-13T10:04:43.981Z,0.70
2023-03-13T10:07:48.715Z,2.55
2023-03-13T10:10:57.487Z,2.60
2023-03-13T10:14:05.768Z,5.90
2023-03-13T10:17:17.710Z,1.35
2023-03-13T10:20:25.492Z,1.13
2023-03-13T10:23:40.488Z,1.08
2023-03-13T10:26:43.390Z,0.52
2023-03-13T10:29:46.290Z,0.70
2023-03-13T10:32:49.396Z,1.95
2023-03-13T10:36:05.794Z,2.50
2023-03-13T10:39:16.854Z,0.63
2023-03-13T10:42:24.796Z,1.27
2023-03-13T10:45:28.449Z,1.67
2023-03-13T10:48:37.420Z,0.85
2023-03-13T10:51:41.822Z,2.92
2023-03-13T10:54:46.820Z,2.58
2023-03-13T10:57:59.819Z,2.40
2023-03-13T11:01:18.885Z,2.42
2023-03-13T11:04:30.836Z,0.90
2023-03-13T11:07:36.121Z,0.70
2023-03-13T11:10:54.725Z,1.30
2023-03-13T11:14:09.722Z,2.03
2023-03-13T11:17:31.505Z,2.22
2023-03-13T11:20:36.978Z,2.08
2023-03-13T11:23:46.207Z,1.50
2023-03-13T11:27:04.752Z,1.33
2023-03-13T11:30:20.747Z,0.77
2023-03-13T11:33:37.697Z,0.98
2023-03-13T11:36:48.862Z,0.93
2023-03-13T11:40:10.984Z,0.63
2023-03-13T11:43:35.420Z,0.90
2023-03-13T11:46:51.176Z,0.55
2023-03-13T11:50:27.343Z,1.70
2023-03-13T11:53:46.167Z,1.27
2023-03-13T11:56:55.310Z,2.30
2023-03-13T12:00:20.209Z,1.45
2023-03-13T12:03:32.805Z,1.55
2023-03-13T12:06:39.145Z,1.35
2023-03-13T12:09:45.724Z,0.70
2023-03-13T12:12:53.339Z,0.82
2023-03-13T12:16:01.700Z,1.75
2023-03-13T12:19:04.549Z,2.58
2023-03-13T12:22:16.148Z,2.22
2023-03-13T12:25:24.883Z,1.60
2023-03-13T12:28:36.150Z,1.23
2023-03-13T12:31:44.974Z,0.93
2023-03-13T12:34:56.582Z,0.43
2023-03-13T12:38:06.410Z,0.90
2023-03-13T12:41:20.678Z,0.90
2023-03-13T12:44:24.841Z,0.63
2023-03-13T12:47:33.526Z,0.60
2023-03-13T12:50:45.917Z,0.73
2023-03-13T12:54:25.407Z,0.90
2023-03-13T12:58:10.531Z,0.85
2023-03-13T13:01:20.619Z,0.40
2023-03-13T13:04:28.432Z,1.75
2023-03-13T13:07:34.093Z,0.63
2023-03-13T13:10:36.969Z,0.82
2023-03-13T13:13:41.148Z,1.58
2023-03-13T13:16:45.406Z,1.88
2023-03-13T13:19:49.672Z,0.60
2023-03-13T13:22:53.141Z,3.00
2023-03-13T13:25:57.565Z,1.42
2023-03-13T13:29:02.211Z,1.38
2023-03-13T13:32:07.120Z,1.70
2023-03-13T13:35:30.432Z,1.00
2023-03-13T13:38:42.556Z,0.50
2023-03-13T13:41:45.651Z,1.70
2023-03-13T13:44:59.613Z,0.30
2023-03-13T13:48:31.040Z,1.70
2023-03-13T13:51:37.237Z,0.30
2023-03-13T13:54:56.339Z,0.38
2023-03-13T13:58:05.575Z,1.48
2023-03-13T14:01:11.250Z,0.40
2023-03-13T14:04:20.744Z,0.98
2023-03-13T14:07:31.434Z,1.65
2023-03-13T14:10:40.374Z,0.63
2023-03-13T14:13:43.747Z,0.60
2023-03-13T14:16:48.203Z,0.90
2023-03-13T14:19:51.013Z,0.68
2023-03-13T14:22:57.373Z,1.30
2023-03-13T14:26:10.624Z,1.00
2023-03-13T14:29:20.494Z,1.73
2023-03-13T14:32:27.183Z,1.27
2023-03-13T14:35:30.155Z,1.00
2023-03-13T14:38:34.489Z,1.20
2023-03-13T14:41:43.137Z,1.25
2023-03-13T14:44:50.120Z,0.63
2023-03-13T14:47:54.452Z,0.60
2023-03-13T14:51:14.791Z,0.45
2023-03-13T14:54:31.262Z,1.45
2023-03-13T14:57:35.503Z,1.08
2023-03-13T15:00:41.600Z,1.20
2023-03-13T15:03:46.507Z,1.10
2023-03-13T15:06:49.147Z,0.90
2023-03-13T15:09:53.712Z,0.40
2023-03-13T15:12:56.353Z,0.85
2023-03-13T15:15:59.234Z,0.52
2023-03-13T15:19:01.891Z,1.27
2023-03-13T15:22:04.718Z,1.10
2023-03-13T15:25:17.365Z,0.73
2023-03-13T15:28:22.057Z,0.50
2023-03-13T15:31:27.626Z,0.65
2023-03-13T15:34:33.889Z,1.35
2023-03-13T15:37:36.919Z,0.90
2023-03-13T15:40:41.280Z,0.32
2023-03-13T15:43:43.887Z,1.10
2023-03-13T15:46:48.015Z,1.77
2023-03-13T15:49:50.708Z,1.25
2023-03-13T15:52:54.199Z,0.95
2023-03-13T15:56:00.285Z,0.77
2023-03-13T15:59:03.470Z,0.40
2023-03-13T16:02:15.158Z,1.35
2023-03-13T16:05:18.499Z,1.45
2023-03-13T16:08:34.807Z,1.15
2023-03-13T16:11:40.262Z,0.65
2023-03-13T16:14:42.943Z,2.42
2023-03-13T16:17:45.567Z,1.20
2023-03-13T16:20:49.223Z,0.73
2023-03-13T16:23:51.886Z,0.60
2023-03-13T16:26:55.898Z,1.20
2023-03-13T16:29:58.508Z,1.10
2023-03-13T16:33:04.119Z,0.77
2023-03-13T16:36:14.337Z,0.77
2023-03-13T16:39:17.140Z,0.80
2023-03-13T16:42:21.109Z,1.15
2023-03-13T16:45:24.368Z,4.10
2023-03-13T16:48:27.100Z,1.80
2023-03-13T16:51:30.202Z,1.30
2023-03-13T16:54:32.808Z,1.30
2023-03-13T16:57:37.155Z,1.48
2023-03-13T17:00:39.768Z,0.55
2023-03-13T17:03:42.598Z,1.20
2023-03-13T17:06:46.024Z,2.47
2023-03-13T17:09:48.823Z,0.75
2023-03-13T17:12:53.023Z,2.42
2023-03-13T17:15:55.702Z,2.20
2023-03-13T17:18:59.002Z,1.95
2023-03-13T17:22:01.833Z,1.70
2023-03-13T17:25:04.956Z,1.42
2023-03-13T17:28:13.691Z,2.97
2023-03-13T17:31:17.400Z,1.15
2023-03-13T17:34:20.570Z,1.27
2023-03-13T17:37:23.193Z,1.02
2023-03-13T17:40:28.301Z,2.55
2023-03-13T17:43:32.247Z,0.85
2023-03-13T17:46:39.209Z,4.15
2023-03-13T17:49:41.932Z,1.27
2023-03-13T17:52:44.662Z,2.20
2023-03-13T17:55:47.353Z,1.83
2023-03-13T17:58:54.328Z,1.85
2023-03-13T18:01:57.224Z,1.50
2023-03-13T18:05:00.751Z,1.50
2023-03-13T18:08:03.425Z,1.27
2023-03-13T18:11:06.552Z,2.40
2023-03-13T18:14:10.782Z,1.55
2023-03-13T18:17:19.659Z,0.90
2023-03-13T18:20:24.894Z,1.10
2023-03-13T18:23:27.552Z,0.73
2023-03-13T18:26:32.428Z,1.02
2023-03-13T18:29:36.400Z,0.90
2023-03-13T18:32:39.049Z,1.02
2023-03-13T18:35:41.704Z,1.00
2023-03-13T18:38:44.411Z,1.40
2023-03-13T18:41:49.382Z,0.77
2023-03-13T18:44:54.111Z,0.50
2023-03-13T18:47:59.833Z,1.95
2023-03-13T18:51:07.134Z,1.67
2023-03-13T18:54:13.016Z,2.47
2023-03-13T18:57:21.157Z,1.60
2023-03-13T19:00:31.064Z,1.00
2023-03-13T19:03:40.507Z,1.92
2023-03-13T19:06:48.015Z,1.35
2023-03-13T19:09:59.223Z,2.72
2023-03-13T19:13:06.029Z,5.55
2023-03-13T19:16:28.615Z,2.72
2023-03-13T19:19:34.010Z,1.08
2023-03-13T19:22:41.215Z,1.67
2023-03-13T19:25:47.223Z,1.73
2023-03-13T19:28:52.065Z,2.38
2023-03-13T19:32:05.373Z,1.75
2023-03-13T19:35:17.096Z,1.70
2023-03-13T19:38:26.126Z,2.00
2023-03-13T19:41:32.986Z,1.52
2023-03-13T19:44:40.426Z,4.05
2023-03-13T19:47:53.293Z,1.63
2023-03-13T19:50:59.547Z,1.60
2023-03-13T19:54:06.425Z,2.75
2023-03-13T19:57:17.436Z,2.13
2023-03-13T20:00:29.816Z,1.55
2023-03-13T20:03:40.092Z,1.83
2023-03-13T20:06:48.077Z,3.67
2023-03-13T20:09:55.396Z,1.10
2023-03-13T20:13:00.704Z,0.95
2023-03-13T20:16:06.208Z,0.68
2023-03-13T20:19:13.419Z,1.85
2023-03-13T20:22:21.722Z,2.78
2023-03-13T20:25:29.335Z,1.52
2023-03-13T20:28:35.479Z,1.43
2023-03-13T20:31:41.448Z,1.50
2023-03-13T20:34:48.372Z,1.40
2023-03-13T20:37:58.617Z,0.60
2023-03-13T20:41:06.222Z,0.20
2023-03-13T20:44:12.095Z,0.20
2023-03-13T20:47:19.645Z,0.50
2023-03-13T20:50:26.552Z,0.73
2023-03-13T20:53:31.004Z,1.00
2023-03-13T20:56:37.393Z,1.03
2023-03-13T20:59:49.923Z,0.38
2023-03-13T21:02:56.014Z,1.90
2023-03-13T21:06:02.597Z,1.70
2023-03-13T21:09:11.661Z,0.28
2023-03-13T21:12:18.387Z,0.50
2023-03-13T21:15:27.633Z,1.58
2023-03-13T21:18:32.235Z,1.05
2023-03-13T21:21:40.142Z,0.88
2023-03-13T21:24:48.136Z,3.08
2023-03-13T21:27:53.734Z,1.73
2023-03-13T21:31:02.397Z,1.17
2023-03-13T21:34:09.410Z,0.80
2023-03-13T21:37:25.415Z,0.22
2023-03-13T21:40:32.013Z,0.30
2023-03-13T21:43:37.837Z,0.63
2023-03-13T21:46:48.800Z,0.28
2023-03-13T21:49:56.058Z,0.43
2023-03-13T21:53:03.703Z,1.92
2023-03-13T21:56:09.903Z,0.47
2023-03-13T21:59:15.044Z,0.57
2023-03-13T22:02:20.876Z,0.38
2023-03-13T22:05:26.710Z,0.40
2023-03-13T22:08:35.353Z,0.10
2023-03-13T22:11:43.548Z,1.80
2023-03-13T22:14:46.978Z,0.30
2023-03-13T22:17:52.596Z,0.60
2023-03-13T22:21:00.675Z,0.47
2023-03-13T22:24:09.026Z,1.42
2023-03-13T22:27:12.932Z,0.17
2023-03-13T22:30:16.551Z,0.30
2023-03-13T22:33:20.788Z,0.30
2023-03-13T22:36:27.083Z,0.30
2023-03-13T22:39:36.676Z,0.50
2023-03-13T22:42:42.148Z,0.95
2023-03-13T22:45:49.118Z,0.50
2023-03-13T22:48:53.214Z,0.50
2023-03-13T22:51:57.260Z,0.97
2023-03-13T22:55:05.437Z,2.28
2023-03-13T22:58:11.788Z,0.88
2023-03-13T23:01:18.536Z,1.95
2023-03-13T23:04:23.284Z,0.22
2023-03-13T23:07:28.922Z,0.30
2023-03-13T23:10:35.003Z,0.93
2023-03-13T23:13:38.448Z,1.35
2023-03-13T23:16:41.885Z,0.17
2023-03-13T23:19:45.446Z,0.37
2023-03-13T23:22:50.223Z,0.30
2023-03-13T23:25:54.353Z,0.70
2023-03-13T23:28:57.143Z,0.37
2023-03-13T23:31:59.928Z,0.30
2023-03-13T23:35:03.440Z,0.10
2023-03-13T23:38:06.299Z,0.23
2023-03-13T23:41:12.751Z,0.53
2023-03-13T23:44:15.592Z,0.10
2023-03-13T23:47:18.306Z,0.17
2023-03-13T23:50:21.320Z,0.23
2023-03-13T23:53:24.272Z,0.23
2023-03-13T23:56:29.637Z,0.60
2023-03-13T23:59:32.508Z,0.47
